Time;durP1;ratioP1;P1;durP2;ratioP2;P2;SDS_P1;SDS_P2;PMS_P1;PMS_P2;Temp;Humidity;BMP_temperature;BMP_pressure;BME280_temperature;BME280_humidity;BME280_pressure;Samples;Min_cycle;Max_cycle;Signal;HPM_P1;HPM_P2
2022/12/20 00:00:51;;;;;;;;;5.00;5.00;;;;;;;;5036713;28;9445;-82
2022/12/20 00:03:20;;;;;;;;;6.00;6.00;;;;;;;;5037383;28;9564;-82
2022/12/20 00:05:48;;;;;;;;;7.75;7.75;;;;;;;;5038912;28;9404;-82
2022/12/20 00:08:17;;;;;;;;;7.25;5.00;;;;;;;;5039531;28;10624;-83
2022/12/20 00:10:48;;;;;;;;;5.00;5.00;;;;;;;;5021271;28;9592;-83
2022/12/20 00:13:15;;;;;;;;;6.25;6.25;;;;;;;;5037700;28;9566;-83
2022/12/20 00:15:42;;;;;;;;;8.00;5.00;;;;;;;;5041593;28;9490;-83
2022/12/20 00:18:10;;;;;;;;;5.00;5.00;;;;;;;;5038770;28;9501;-83
2022/12/20 00:20:38;;;;;;;;;5.00;5.00;;;;;;;;5035409;28;9487;-83
2022/12/20 00:23:06;;;;;;;;;6.25;6.25;;;;;;;;5038094;28;9547;-82
2022/12/20 00:25:35;;;;;;;;;8.50;6.50;;;;;;;;5039384;28;9527;-83
2022/12/20 00:28:03;;;;;;;;;5.75;5.75;;;;;;;;5039511;28;9629;-83
2022/12/20 00:30:30;;;;;;;;;8.00;8.00;;;;;;;;5038553;28;9674;-83
2022/12/20 00:32:57;;;;;;;;;6.00;6.00;;;;;;;;5039221;28;9582;-82
2022/12/20 00:35:25;;;;;;;;;8.50;5.75;;;;;;;;5042270;28;9639;-83
2022/12/20 00:37:53;;;;;;;;;9.00;7.50;;;;;;;;5023575;28;9720;-83
2022/12/20 00:40:20;;;;;;;;;8.00;8.00;;;;;;;;5038279;28;9793;-82
2022/12/20 00:42:49;;;;;;;;;5.50;5.50;;;;;;;;5039572;28;9716;-84
2022/12/20 00:45:17;;;;;;;;;5.75;5.75;;;;;;;;5037296;28;9801;-84
2022/12/20 00:47:44;;;;;;;;;6.25;6.25;;;;;;;;5037205;28;9688;-84
2022/12/20 00:50:12;;;;;;;;;10.50;10.50;;;;;;;;5039200;28;9695;-85
2022/12/20 00:52:42;;;;;;;;;8.00;8.00;;;;;;;;5039895;28;9942;-84
2022/12/20 00:55:10;;;;;;;;;7.75;7.75;;;;;;;;5038813;28;9731;-83
2022/12/20 00:57:38;;;;;;;;;9.75;8.00;;;;;;;;5035723;28;9637;-83
2022/12/20 01:00:10;;;;;;;;;4.00;4.00;;;;;;;;5041446;28;9720;-82
2022/12/20 01:02:37;;;;;;;;;8.50;8.50;;;;;;;;5040298;28;10582;-81
2022/12/20 01:05:06;;;;;;;;;8.00;8.00;;;;;;;;5038499;28;9724;-81
2022/12/20 01:07:34;;;;;;;;;5.50;5.50;;;;;;;;5036955;28;9946;-82
2022/12/20 01:10:02;;;;;;;;;8.50;5.75;;;;;;;;5036948;28;9826;-84
2022/12/20 01:12:29;;;;;;;;;5.00;5.00;;;;;;;;5032942;28;9909;-82
2022/12/20 01:14:57;;;;;;;;;6.00;6.00;;;;;;;;5038769;28;9828;-82
2022/12/20 01:17:25;;;;;;;;;5.25;5.25;;;;;;;;5038018;28;9751;-82
2022/12/20 01:19:53;;;;;;;;;8.75;5.00;;;;;;;;5037995;28;9693;-82
2022/12/20 01:22:20;;;;;;;;;6.25;6.25;;;;;;;;5037406;28;9805;-82
2022/12/20 01:24:48;;;;;;;;;6.25;6.25;;;;;;;;5038618;28;9836;-82
2022/12/20 01:27:15;;;;;;;;;4.75;4.75;;;;;;;;5035186;28;10595;-82
2022/12/20 01:29:43;;;;;;;;;6.25;6.25;;;;;;;;5037751;28;9767;-82
2022/12/20 01:32:10;;;;;;;;;5.00;5.00;;;;;;;;5036697;28;9696;-82
2022/12/20 01:34:39;;;;;;;;;5.00;4.75;;;;;;;;5032423;28;9853;-82
2022/12/20 01:37:07;;;;;;;;;7.00;7.00;;;;;;;;5038048;28;9616;-82
2022/12/20 01:39:35;;;;;;;;;8.00;4.50;;;;;;;;5040235;28;9817;-83
2022/12/20 01:42:02;;;;;;;;;2.00;2.00;;;;;;;;5036626;28;9588;-84
2022/12/20 01:44:55;;;;;;;;;6.00;4.00;;;;;;;;5041379;28;9539;-82
2022/12/20 01:47:24;;;;;;;;;6.00;6.00;;;;;;;;5037159;28;9644;-83
2022/12/20 01:49:55;;;;;;;;;7.00;5.00;;;;;;;;5039594;28;9666;-83
2022/12/20 01:52:29;;;;;;;;;8.00;5.00;;;;;;;;5038250;28;9662;-83
2022/12/20 01:55:04;;;;;;;;;6.75;4.50;;;;;;;;5039630;28;9672;-83
2022/12/20 01:57:35;;;;;;;;;4.00;4.00;;;;;;;;5040704;28;9602;-83
2022/12/20 02:00:03;;;;;;;;;7.25;5.00;;;;;;;;5042472;28;9563;-83
2022/12/20 02:02:32;;;;;;;;;7.25;7.00;;;;;;;;5038428;28;9534;-83
2022/12/20 02:05:01;;;;;;;;;5.25;4.50;;;;;;;;5041996;28;9606;-82
2022/12/20 02:07:31;;;;;;;;;3.00;3.00;;;;;;;;5041984;28;9487;-83
2022/12/20 02:09:59;;;;;;;;;4.00;4.00;;;;;;;;5041515;28;9563;-83
2022/12/20 02:12:29;;;;;;;;;8.00;6.50;;;;;;;;5040549;28;9513;-82
2022/12/20 02:15:17;;;;;;;;;8.25;5.75;;;;;;;;5043833;28;10339;-82
2022/12/20 02:17:53;;;;;;;;;7.50;5.00;;;;;;;;5039573;28;9554;-82
2022/12/20 02:20:55;;;;;;;;;4.50;4.50;;;;;;;;5036481;28;9484;-83
2022/12/20 02:23:56;;;;;;;;;3.50;3.50;;;;;;;;5040944;28;9619;-83
2022/12/20 02:27:01;;;;;;;;;4.00;4.00;;;;;;;;5041829;28;9551;-83
2022/12/20 02:29:35;;;;;;;;;5.50;4.00;;;;;;;;5040721;28;9598;-83
2022/12/20 02:32:11;;;;;;;;;1.50;1.00;;;;;;;;5019151;28;9551;-83
2022/12/20 02:34:40;;;;;;;;;4.00;4.00;;;;;;;;5040385;28;9501;-82
2022/12/20 02:37:08;;;;;;;;;4.00;4.00;;;;;;;;5039269;28;9787;-83
2022/12/20 02:39:39;;;;;;;;;4.25;4.25;;;;;;;;5041744;28;9546;-82
2022/12/20 02:42:09;;;;;;;;;4.00;4.00;;;;;;;;5045826;28;10525;-82
2022/12/20 02:47:29;;;;;;;;;6.75;5.00;;;;;;;;5041506;28;9688;-82
2022/12/20 02:49:57;;;;;;;;;3.50;3.00;;;;;;;;5045280;28;9742;-82
2022/12/20 02:52:25;;;;;;;;;4.00;4.00;;;;;;;;5052415;28;9527;-82
2022/12/20 02:54:54;;;;;;;;;5.00;3.00;;;;;;;;5043253;28;9508;-82
2022/12/20 02:57:26;;;;;;;;;2.25;2.25;;;;;;;;5039276;28;9541;-83
2022/12/20 02:59:58;;;;;;;;;3.00;3.00;;;;;;;;5042171;28;9493;-82
2022/12/20 03:02:27;;;;;;;;;3.00;3.00;;;;;;;;5041369;28;9498;-83
2022/12/20 03:04:55;;;;;;;;;5.00;5.00;;;;;;;;5045749;28;9346;-83
2022/12/20 03:07:22;;;;;;;;;4.33;4.33;;;;;;;;5042289;28;9499;-83
2022/12/20 03:09:50;;;;;;;;;5.00;3.50;;;;;;;;5046243;28;9487;-82
2022/12/20 03:12:17;;;;;;;;;3.00;3.00;;;;;;;;5047549;28;9528;-82
2022/12/20 03:14:45;;;;;;;;;5.75;4.00;;;;;;;;5044570;28;9510;-83
2022/12/20 03:17:12;;;;;;;;;4.50;4.50;;;;;;;;5039941;28;9412;-83
2022/12/20 03:19:41;;;;;;;;;4.00;4.00;;;;;;;;5040135;28;10253;-83
2022/12/20 03:22:08;;;;;;;;;4.00;4.00;;;;;;;;5041421;28;9466;-83
2022/12/20 03:24:36;;;;;;;;;3.75;3.75;;;;;;;;5039978;28;9367;-82
2022/12/20 03:27:03;;;;;;;;;3.33;2.00;;;;;;;;5040938;28;9505;-82
2022/12/20 03:29:31;;;;;;;;;3.00;3.00;;;;;;;;5037083;28;10232;-81
2022/12/20 03:31:58;;;;;;;;;3.67;3.67;;;;;;;;5037154;28;9379;-81
2022/12/20 03:34:26;;;;;;;;;3.00;3.00;;;;;;;;5038670;28;9360;-81
2022/12/20 03:36:55;;;;;;;;;3.33;3.33;;;;;;;;5054932;28;9434;-81
2022/12/20 03:39:23;;;;;;;;;3.00;3.00;;;;;;;;5037952;28;9477;-82
2022/12/20 03:41:50;;;;;;;;;2.00;2.00;;;;;;;;5039416;28;9383;-82
2022/12/20 03:44:17;;;;;;;;;4.00;2.00;;;;;;;;5034965;28;9657;-82
2022/12/20 03:46:45;;;;;;;;;2.00;2.00;;;;;;;;5039449;28;9444;-84
2022/12/20 03:49:12;;;;;;;;;2.50;2.50;;;;;;;;5041707;28;10067;-83
2022/12/20 03:51:40;;;;;;;;;2.00;2.00;;;;;;;;5041030;28;9463;-84
2022/12/20 03:54:09;;;;;;;;;3.00;3.00;;;;;;;;5040632;28;9434;-83
2022/12/20 03:56:37;;;;;;;;;1.00;1.00;;;;;;;;5040705;28;9387;-83
2022/12/20 03:59:04;;;;;;;;;4.00;2.50;;;;;;;;5040769;28;9364;-82
2022/12/20 04:01:35;;;;;;;;;2.75;2.75;;;;;;;;5043712;28;10285;-81
2022/12/20 04:04:03;;;;;;;;;2.00;2.00;;;;;;;;5040232;28;9573;-82
2022/12/20 04:06:31;;;;;;;;;5.25;3.75;;;;;;;;5057358;28;9474;-81
2022/12/20 04:08:58;;;;;;;;;4.00;4.00;;;;;;;;5042198;28;9569;-82
2022/12/20 04:11:27;;;;;;;;;2.00;2.00;;;;;;;;5038753;28;10248;-82
2022/12/20 04:13:55;;;;;;;;;3.00;2.00;;;;;;;;5048176;28;10138;-82
2022/12/20 04:16:24;;;;;;;;;2.00;2.00;;;;;;;;5052790;28;9490;-82
2022/12/20 04:18:52;;;;;;;;;2.00;2.00;;;;;;;;5052089;28;9393;-82
2022/12/20 04:21:24;;;;;;;;;3.00;3.00;;;;;;;;5053363;28;9508;-82
2022/12/20 04:23:52;;;;;;;;;3.00;3.00;;;;;;;;5046715;28;9475;-83
2022/12/20 04:26:19;;;;;;;;;2.00;2.00;;;;;;;;5048538;28;9486;-82
2022/12/20 04:28:48;;;;;;;;;1.75;1.75;;;;;;;;5054115;28;9467;-82
2022/12/20 04:31:15;;;;;;;;;2.00;2.00;;;;;;;;5050615;28;9484;-82
2022/12/20 04:33:43;;;;;;;;;2.50;2.50;;;;;;;;5054433;28;9316;-82
2022/12/20 04:36:10;;;;;;;;;1.75;1.75;;;;;;;;5054638;28;9492;-82
2022/12/20 04:38:39;;;;;;;;;3.33;2.00;;;;;;;;5053870;28;9661;-84
2022/12/20 04:41:08;;;;;;;;;3.00;3.00;;;;;;;;5041184;28;9409;-84
2022/12/20 04:43:35;;;;;;;;;3.00;3.00;;;;;;;;5037417;28;9495;-84
2022/12/20 04:46:04;;;;;;;;;3.00;2.00;;;;;;;;5042675;28;9410;-84
2022/12/20 04:48:32;;;;;;;;;2.00;2.00;;;;;;;;5040425;28;9542;-84
2022/12/20 04:50:59;;;;;;;;;1.67;1.67;;;;;;;;5039999;28;9533;-83
2022/12/20 04:56:12;;;;;;;;;2.00;2.00;;;;;;;;5038947;28;9312;-84
2022/12/20 04:58:40;;;;;;;;;5.00;2.00;;;;;;;;5038386;28;9332;-83
2022/12/20 05:01:09;;;;;;;;;2.00;2.00;;;;;;;;5038497;28;9256;-83
2022/12/20 05:03:37;;;;;;;;;2.00;2.00;;;;;;;;5039403;28;9488;-83
2022/12/20 05:06:05;;;;;;;;;1.50;1.50;;;;;;;;5036439;28;9591;-83
2022/12/20 05:08:33;;;;;;;;;0.33;0.33;;;;;;;;5041002;28;9437;-83
2022/12/20 05:11:01;;;;;;;;;3.00;1.33;;;;;;;;5038164;28;9405;-83
2022/12/20 05:13:28;;;;;;;;;1.25;1.25;;;;;;;;5042395;28;9342;-83
2022/12/20 05:15:57;;;;;;;;;2.00;2.00;;;;;;;;5046326;28;9415;-83
2022/12/20 05:18:26;;;;;;;;;2.00;2.00;;;;;;;;5049692;28;9426;-84
2022/12/20 05:26:23;;;;;;;;;2.75;1.75;;;;;;;;5038881;28;9768;-85
2022/12/20 05:28:51;;;;;;;;;0.00;0.00;;;;;;;;5037964;28;9508;-84
2022/12/20 05:31:19;;;;;;;;;3.50;2.00;;;;;;;;5041613;28;9491;-85
2022/12/20 05:33:48;;;;;;;;;0.33;0.00;;;;;;;;5070270;28;9478;-82
2022/12/20 05:36:17;;;;;;;;;2.00;2.00;;;;;;;;5042127;28;9494;-83
2022/12/20 05:38:44;;;;;;;;;1.00;1.00;;;;;;;;5054822;28;9435;-80
2022/12/20 05:41:11;;;;;;;;;1.67;1.67;;;;;;;;5052735;28;9371;-78
2022/12/20 05:43:39;;;;;;;;;1.00;1.00;;;;;;;;5057068;28;9434;-79
2022/12/20 05:46:06;;;;;;;;;2.00;2.00;;;;;;;;5047986;28;9419;-78
2022/12/20 05:48:34;;;;;;;;;2.75;2.75;;;;;;;;5040822;28;9411;-79
2022/12/20 05:51:03;;;;;;;;;2.00;2.00;;;;;;;;5043468;28;9569;-79
2022/12/20 05:53:31;;;;;;;;;1.00;1.00;;;;;;;;5047705;28;9502;-80
2022/12/20 05:55:58;;;;;;;;;2.00;2.00;;;;;;;;5055456;28;9479;-81
2022/12/20 05:58:26;;;;;;;;;1.00;1.00;;;;;;;;5059084;28;9674;-81
2022/12/20 06:00:55;;;;;;;;;3.00;3.00;;;;;;;;5043616;28;9466;-81
2022/12/20 06:03:22;;;;;;;;;2.00;2.00;;;;;;;;5048683;28;9534;-81
2022/12/20 06:05:50;;;;;;;;;2.00;2.00;;;;;;;;5041801;28;9651;-81
2022/12/20 06:08:20;;;;;;;;;3.50;3.25;;;;;;;;5039636;28;9612;-81
2022/12/20 06:10:49;;;;;;;;;3.00;3.00;;;;;;;;5044857;28;10315;-81
2022/12/20 06:13:18;;;;;;;;;2.00;2.00;;;;;;;;5039411;28;9693;-82
2022/12/20 06:15:45;;;;;;;;;1.00;1.00;;;;;;;;5040964;28;9567;-81
2022/12/20 06:18:13;;;;;;;;;2.00;2.00;;;;;;;;5038046;28;9529;-81
2022/12/20 06:20:41;;;;;;;;;0.00;0.00;;;;;;;;5023963;28;9632;-81
2022/12/20 06:23:09;;;;;;;;;2.25;1.00;;;;;;;;5036366;28;9533;-80
2022/12/20 06:25:39;;;;;;;;;2.50;2.00;;;;;;;;5043015;28;10396;-81
2022/12/20 06:28:06;;;;;;;;;2.25;2.00;;;;;;;;5048736;28;9816;-81
2022/12/20 06:30:34;;;;;;;;;3.00;3.00;;;;;;;;5054393;28;9761;-81
2022/12/20 06:33:02;;;;;;;;;2.00;2.00;;;;;;;;5060203;28;9679;-81
2022/12/20 06:35:30;;;;;;;;;1.00;1.00;;;;;;;;5065740;28;9721;-81
2022/12/20 06:37:57;;;;;;;;;2.50;2.25;;;;;;;;5058663;28;9677;-80
2022/12/20 06:40:25;;;;;;;;;3.00;3.00;;;;;;;;5061120;28;9752;-80
2022/12/20 06:42:53;;;;;;;;;1.75;1.75;;;;;;;;5066319;28;9611;-80
2022/12/20 06:45:21;;;;;;;;;2.50;2.50;;;;;;;;5055850;28;9615;-79
2022/12/20 06:47:48;;;;;;;;;4.25;3.00;;;;;;;;5055844;28;9964;-81
2022/12/20 06:50:16;;;;;;;;;3.00;3.00;;;;;;;;5058793;28;9725;-79
2022/12/20 06:52:44;;;;;;;;;3.00;3.00;;;;;;;;5045570;28;9812;-81
2022/12/20 06:55:15;;;;;;;;;2.00;2.00;;;;;;;;5036753;28;9624;-78
2022/12/20 06:57:43;;;;;;;;;3.00;3.00;;;;;;;;5043188;28;9700;-79
2022/12/20 07:00:14;;;;;;;;;2.00;2.00;;;;;;;;5059067;28;9630;-76
2022/12/20 07:02:41;;;;;;;;;4.00;3.00;;;;;;;;5046853;28;9627;-77
2022/12/20 07:05:10;;;;;;;;;2.75;2.75;;;;;;;;5044788;28;9734;-77
2022/12/20 07:07:37;;;;;;;;;3.00;3.00;;;;;;;;5038190;28;9751;-75
2022/12/20 07:10:06;;;;;;;;;2.75;2.75;;;;;;;;5036963;28;9784;-76
2022/12/20 07:12:33;;;;;;;;;3.00;3.00;;;;;;;;5039859;28;9816;-75
2022/12/20 07:15:03;;;;;;;;;3.00;3.00;;;;;;;;5037179;28;9593;-80
2022/12/20 07:17:32;;;;;;;;;6.00;4.00;;;;;;;;5040341;28;9733;-75
2022/12/20 07:20:03;;;;;;;;;2.00;2.00;;;;;;;;5038884;28;9684;-77
2022/12/20 07:22:33;;;;;;;;;4.25;3.00;;;;;;;;5042057;28;9692;-77
2022/12/20 07:25:00;;;;;;;;;3.00;3.00;;;;;;;;5036774;28;9747;-77
2022/12/20 07:27:28;;;;;;;;;3.75;3.00;;;;;;;;5025434;28;9713;-77
2022/12/20 07:30:00;;;;;;;;;2.00;2.00;;;;;;;;5060193;28;9639;-77
2022/12/20 07:32:28;;;;;;;;;4.75;3.00;;;;;;;;5036538;28;10470;-78
2022/12/20 07:34:57;;;;;;;;;2.00;2.00;;;;;;;;5035307;28;9602;-78
2022/12/20 07:37:25;;;;;;;;;2.50;2.50;;;;;;;;5038371;28;9622;-77
2022/12/20 07:39:52;;;;;;;;;1.75;1.75;;;;;;;;5055881;28;9693;-77
2022/12/20 07:42:19;;;;;;;;;3.00;3.00;;;;;;;;5043362;28;9677;-76
2022/12/20 07:44:47;;;;;;;;;2.50;2.25;;;;;;;;5035284;28;9785;-76
2022/12/20 07:47:15;;;;;;;;;4.25;4.25;;;;;;;;5038543;28;9608;-77
2022/12/20 07:49:42;;;;;;;;;3.00;2.00;;;;;;;;5041850;28;10583;-78
2022/12/20 07:52:14;;;;;;;;;4.25;3.75;;;;;;;;5032954;28;9897;-77
2022/12/20 07:54:44;;;;;;;;;3.00;3.00;;;;;;;;5040615;28;9755;-75
2022/12/20 07:57:17;;;;;;;;;5.00;3.50;;;;;;;;5035926;28;9785;-74
2022/12/20 07:59:47;;;;;;;;;3.00;3.00;;;;;;;;5037103;28;9700;-77
2022/12/20 08:02:18;;;;;;;;;3.00;3.00;;;;;;;;5021052;28;9804;-75
2022/12/20 08:04:47;;;;;;;;;6.25;2.25;;;;;;;;5038598;28;9765;-75
2022/12/20 08:07:19;;;;;;;;;3.50;2.00;;;;;;;;5039091;28;9800;-76
2022/12/20 08:09:47;;;;;;;;;3.75;3.00;;;;;;;;5040492;28;9751;-74
2022/12/20 08:12:17;;;;;;;;;3.25;1.75;;;;;;;;5034959;28;10011;-75
2022/12/20 08:14:45;;;;;;;;;3.25;3.25;;;;;;;;5037181;28;9683;-75
2022/12/20 08:17:12;;;;;;;;;5.00;5.00;;;;;;;;5042502;28;9706;-75
2022/12/20 08:19:40;;;;;;;;;5.00;5.00;;;;;;;;5039134;28;10575;-75
2022/12/20 08:22:07;;;;;;;;;3.00;3.00;;;;;;;;5039388;28;9765;-75
2022/12/20 08:24:36;;;;;;;;;3.75;3.75;;;;;;;;5036762;28;9675;-75
2022/12/20 08:27:03;;;;;;;;;3.50;3.50;;;;;;;;5036379;28;9688;-77
2022/12/20 08:29:31;;;;;;;;;4.00;4.00;;;;;;;;5037532;28;9854;-76
2022/12/20 08:31:58;;;;;;;;;4.50;4.50;;;;;;;;5035268;28;9764;-74
2022/12/20 08:34:26;;;;;;;;;5.00;5.00;;;;;;;;5035342;28;9755;-75
2022/12/20 08:36:53;;;;;;;;;7.25;4.00;;;;;;;;5048992;28;9934;-77
2022/12/20 08:39:20;;;;;;;;;3.50;3.50;;;;;;;;5040871;28;9875;-77
2022/12/20 08:41:49;;;;;;;;;6.00;6.00;;;;;;;;5037502;28;9796;-75
2022/12/20 08:44:16;;;;;;;;;4.00;4.00;;;;;;;;5033741;28;9791;-75
2022/12/20 08:46:44;;;;;;;;;5.00;5.00;;;;;;;;5037258;28;9805;-75
2022/12/20 08:49:11;;;;;;;;;3.75;3.75;;;;;;;;5037125;28;9697;-75
2022/12/20 08:51:39;;;;;;;;;4.25;4.00;;;;;;;;5034023;28;9753;-75
2022/12/20 08:54:06;;;;;;;;;2.00;2.00;;;;;;;;5036948;28;9754;-75
2022/12/20 08:56:33;;;;;;;;;5.75;5.00;;;;;;;;5033318;28;9847;-75
2022/12/20 08:59:03;;;;;;;;;3.00;3.00;;;;;;;;5034825;28;9772;-75
2022/12/20 09:01:32;;;;;;;;;5.00;3.50;;;;;;;;5031375;28;9631;-75
2022/12/20 09:04:00;;;;;;;;;5.00;5.00;;;;;;;;5033564;28;9676;-76
2022/12/20 09:06:27;;;;;;;;;5.00;5.00;;;;;;;;5039464;28;10561;-75
2022/12/20 09:08:55;;;;;;;;;3.00;3.00;;;;;;;;5037228;28;9642;-75
2022/12/20 09:11:24;;;;;;;;;5.25;5.25;;;;;;;;5039945;28;9598;-75
2022/12/20 09:13:53;;;;;;;;;5.00;5.00;;;;;;;;5042524;28;9685;-75
2022/12/20 09:16:25;;;;;;;;;7.00;4.00;;;;;;;;5031257;28;10608;-75
2022/12/20 09:18:54;;;;;;;;;5.25;4.00;;;;;;;;5042669;28;10520;-75
2022/12/20 09:21:22;;;;;;;;;4.00;4.00;;;;;;;;5035885;28;9486;-75
2022/12/20 09:23:51;;;;;;;;;4.75;4.50;;;;;;;;5034400;28;9787;-75
2022/12/20 09:26:19;;;;;;;;;7.75;3.75;;;;;;;;5035478;28;10313;-75
2022/12/20 09:28:47;;;;;;;;;4.00;3.00;;;;;;;;5052150;28;9551;-75
2022/12/20 09:31:17;;;;;;;;;1.00;1.00;;;;;;;;5050500;28;9568;-75
2022/12/20 09:33:45;;;;;;;;;4.25;4.25;;;;;;;;5041579;28;9535;-75
2022/12/20 09:36:16;;;;;;;;;4.75;4.75;;;;;;;;5041539;28;9612;-75
2022/12/20 09:41:39;;;;;;;;;6.25;6.25;;;;;;;;4961747;22;11351;-73
2022/12/20 09:44:14;;;;;;;;;4.00;4.00;;;;;;;;5009379;28;10035;-75
2022/12/20 09:46:42;;;;;;;;;4.00;4.00;;;;;;;;5013520;28;9758;-73
2022/12/20 09:49:17;;;;;;;;;7.50;5.00;;;;;;;;5013639;28;9797;-74
2022/12/20 09:52:23;;;;;;;;;7.50;7.50;;;;;;;;5013075;28;9937;-73
2022/12/20 09:55:00;;;;;;;;;5.50;3.50;;;;;;;;4980141;28;9794;-73
2022/12/20 09:57:34;;;;;;;;;7.00;4.50;;;;;;;;4982024;28;9892;-73
2022/12/20 10:00:02;;;;;;;;;8.00;8.00;;;;;;;;5013385;28;9800;-74
2022/12/20 10:02:31;;;;;;;;;4.00;4.00;;;;;;;;5013597;28;10384;-73
2022/12/20 10:05:00;;;;;;;;;4.50;4.50;;;;;;;;5016893;28;9843;-73
2022/12/20 10:07:40;;;;;;;;;1.75;1.50;;;;;;;;5010301;28;9868;-73
2022/12/20 10:10:33;;;;;;;;;3.75;3.75;;;;;;;;5011795;28;9871;-74
2022/12/20 10:13:11;;;;;;;;;5.00;3.50;;;;;;;;5009549;28;10206;-73
2022/12/20 10:15:44;;;;;;;;;3.75;3.75;;;;;;;;5013952;28;9897;-73
2022/12/20 10:18:22;;;;;;;;;2.00;1.00;;;;;;;;5014701;28;9868;-73
2022/12/20 10:20:59;;;;;;;;;4.00;4.00;;;;;;;;5015833;28;9800;-76
2022/12/20 10:23:33;;;;;;;;;3.00;3.00;;;;;;;;5012416;28;9925;-72
2022/12/20 10:26:01;;;;;;;;;2.00;2.00;;;;;;;;5015002;28;9830;-73
2022/12/20 10:28:30;;;;;;;;;3.00;3.00;;;;;;;;5014092;28;9809;-75
2022/12/20 10:31:00;;;;;;;;;4.00;4.00;;;;;;;;5016454;28;9785;-73
2022/12/20 10:33:29;;;;;;;;;2.00;2.00;;;;;;;;4992771;28;9903;-71
2022/12/20 10:36:19;;;;;;;;;4.25;4.25;;;;;;;;5008196;28;10712;-74
2022/12/20 10:38:49;;;;;;;;;5.00;3.00;;;;;;;;5013425;28;9896;-73
2022/12/20 10:41:18;;;;;;;;;7.75;7.00;;;;;;;;5010588;28;9881;-76
2022/12/20 10:43:47;;;;;;;;;7.75;4.75;;;;;;;;5016690;28;9930;-74
2022/12/20 10:46:16;;;;;;;;;3.50;3.25;;;;;;;;5013673;28;10019;-75
2022/12/20 10:48:46;;;;;;;;;5.00;5.00;;;;;;;;5014339;28;9759;-73
2022/12/20 10:51:17;;;;;;;;;4.00;4.00;;;;;;;;5015323;28;9932;-74
2022/12/20 10:53:54;;;;;;;;;3.25;3.25;;;;;;;;5014805;28;9779;-70
2022/12/20 10:56:23;;;;;;;;;6.25;4.25;;;;;;;;5011734;28;9944;-72
2022/12/20 10:58:56;;;;;;;;;3.75;3.75;;;;;;;;5016065;28;11449;-71
2022/12/20 11:01:26;;;;;;;;;4.50;3.75;;;;;;;;5014508;28;9928;-73
2022/12/20 11:03:59;;;;;;;;;4.75;4.00;;;;;;;;5020454;28;9783;-70
2022/12/20 11:06:40;;;;;;;;;4.00;4.00;;;;;;;;5006762;28;10136;-72
2022/12/20 11:09:23;;;;;;;;;7.75;5.00;;;;;;;;5014659;28;9982;-71
2022/12/20 11:12:02;;;;;;;;;3.50;3.50;;;;;;;;5010970;28;10016;-71
2022/12/20 11:14:31;;;;;;;;;3.25;3.25;;;;;;;;5013972;28;10033;-71
2022/12/20 11:17:00;;;;;;;;;4.50;4.50;;;;;;;;5012229;28;10046;-70
2022/12/20 11:19:43;;;;;;;;;5.00;5.00;;;;;;;;5013237;28;9958;-71
2022/12/20 11:22:24;;;;;;;;;7.75;7.75;;;;;;;;5013667;28;10224;-70
2022/12/20 11:24:58;;;;;;;;;7.00;7.00;;;;;;;;5012357;28;10998;-72
2022/12/20 11:27:32;;;;;;;;;5.00;5.00;;;;;;;;5010828;28;9966;-72
2022/12/20 11:30:10;;;;;;;;;10.50;9.50;;;;;;;;5016630;28;10913;-72
2022/12/20 11:33:08;;;;;;;;;9.50;9.50;;;;;;;;5016292;28;10112;-72
2022/12/20 11:35:47;;;;;;;;;7.50;5.00;;;;;;;;5003687;28;10126;-73
2022/12/20 11:38:31;;;;;;;;;8.75;8.00;;;;;;;;5015110;28;9929;-72
2022/12/20 11:41:13;;;;;;;;;6.50;6.50;;;;;;;;5009477;28;10095;-71
2022/12/20 11:43:52;;;;;;;;;6.75;6.50;;;;;;;;5012357;28;10195;-72
2022/12/20 11:46:31;;;;;;;;;7.50;5.00;;;;;;;;4994124;28;10175;-72
2022/12/20 11:49:16;;;;;;;;;9.75;7.75;;;;;;;;4995558;28;10064;-72
2022/12/20 11:51:46;;;;;;;;;10.25;8.50;;;;;;;;5009132;28;10079;-73
2022/12/20 11:54:21;;;;;;;;;10.25;7.25;;;;;;;;5010761;28;10191;-72
2022/12/20 11:56:50;;;;;;;;;5.00;5.00;;;;;;;;5006959;28;10208;-72
2022/12/20 11:59:25;;;;;;;;;8.75;8.75;;;;;;;;5006389;28;10263;-73
2022/12/20 12:02:00;;;;;;;;;10.00;7.00;;;;;;;;5009169;28;10114;-70
2022/12/20 12:04:30;;;;;;;;;9.75;7.25;;;;;;;;5009687;28;10180;-72
2022/12/20 12:07:02;;;;;;;;;10.00;7.75;;;;;;;;5011101;28;10098;-70
2022/12/20 12:09:35;;;;;;;;;7.00;7.00;;;;;;;;5011378;28;10279;-70
2022/12/20 12:12:05;;;;;;;;;5.50;5.50;;;;;;;;5012361;28;10185;-70
2022/12/20 12:14:44;;;;;;;;;6.75;6.75;;;;;;;;5013777;28;10031;-74
2022/12/20 12:17:21;;;;;;;;;7.25;7.25;;;;;;;;4992473;28;10188;-71
2022/12/20 12:19:51;;;;;;;;;5.25;5.25;;;;;;;;5013427;28;10079;-80
2022/12/20 12:22:24;;;;;;;;;7.75;5.75;;;;;;;;5010653;28;10079;-71
2022/12/20 12:24:57;;;;;;;;;5.00;5.00;;;;;;;;5007939;28;10128;-72
2022/12/20 12:27:26;;;;;;;;;6.75;6.75;;;;;;;;5010845;28;10139;-72
2022/12/20 12:29:56;;;;;;;;;4.50;4.50;;;;;;;;5007557;28;10187;-72
2022/12/20 12:32:29;;;;;;;;;4.50;4.50;;;;;;;;5006252;28;10051;-73
2022/12/20 12:35:12;;;;;;;;;6.25;5.75;;;;;;;;5010871;28;10067;-72
2022/12/20 12:37:55;;;;;;;;;8.00;5.00;;;;;;;;5011229;28;9921;-71
2022/12/20 12:40:55;;;;;;;;;5.25;5.25;;;;;;;;5014309;28;10064;-74
2022/12/20 12:43:45;;;;;;;;;4.00;4.00;;;;;;;;5012562;28;10256;-71
2022/12/20 12:46:15;;;;;;;;;7.75;7.75;;;;;;;;5015971;28;10807;-71
2022/12/20 12:48:45;;;;;;;;;4.00;4.00;;;;;;;;5009615;28;10010;-72
2022/12/20 12:51:15;;;;;;;;;8.00;5.25;;;;;;;;5005521;28;10095;-71
2022/12/20 12:53:44;;;;;;;;;7.75;7.75;;;;;;;;5009009;28;10085;-71
2022/12/20 12:56:30;;;;;;;;;6.25;6.25;;;;;;;;5007702;28;10010;-71
2022/12/20 12:59:50;;;;;;;;;9.50;8.00;;;;;;;;5008659;28;10053;-72
2022/12/20 13:02:48;;;;;;;;;7.00;7.00;;;;;;;;5013177;28;10045;-71
2022/12/20 13:05:35;;;;;;;;;6.25;4.25;;;;;;;;5010030;28;10928;-71
2022/12/20 13:08:03;;;;;;;;;4.50;4.50;;;;;;;;5015525;28;10087;-71
2022/12/20 13:10:58;;;;;;;;;6.00;6.00;;;;;;;;5011104;28;10028;-72
2022/12/20 13:13:27;;;;;;;;;3.00;3.00;;;;;;;;5014173;28;10000;-72
2022/12/20 13:16:30;;;;;;;;;4.75;4.75;;;;;;;;5013435;28;9998;-71
2022/12/20 13:19:12;;;;;;;;;6.25;6.25;;;;;;;;4980570;28;10182;-71
2022/12/20 13:21:42;;;;;;;;;8.25;8.25;;;;;;;;5011332;28;10240;-71
2022/12/20 13:24:47;;;;;;;;;7.75;7.75;;;;;;;;5012368;28;10116;-71
2022/12/20 13:27:37;;;;;;;;;8.50;8.50;;;;;;;;4936641;28;10193;-72
2022/12/20 13:30:25;;;;;;;;;6.50;6.50;;;;;;;;5004068;28;10214;-72
2022/12/20 13:33:20;;;;;;;;;7.00;7.00;;;;;;;;5011484;28;10003;-71
2022/12/20 13:35:56;;;;;;;;;8.25;8.25;;;;;;;;5008348;28;10021;-73
2022/12/20 13:38:51;;;;;;;;;9.25;9.25;;;;;;;;5008542;28;9981;-73
2022/12/20 13:41:26;;;;;;;;;12.00;10.00;;;;;;;;4984631;28;10013;-71
2022/12/20 13:43:54;;;;;;;;;12.50;11.00;;;;;;;;5010544;28;10029;-71
2022/12/20 13:46:27;;;;;;;;;9.75;8.50;;;;;;;;5015556;28;10059;-72
2022/12/20 13:48:57;;;;;;;;;7.25;6.75;;;;;;;;5011168;28;9910;-72
2022/12/20 13:51:26;;;;;;;;;10.00;5.50;;;;;;;;5008165;28;10026;-71
2022/12/20 13:53:55;;;;;;;;;8.50;7.50;;;;;;;;5014278;28;10150;-71
2022/12/20 13:56:36;;;;;;;;;8.50;8.50;;;;;;;;5013041;28;10936;-71
2022/12/20 13:59:07;;;;;;;;;9.00;8.00;;;;;;;;5008032;28;10007;-71
2022/12/20 14:01:36;;;;;;;;;9.50;8.00;;;;;;;;5010209;28;10091;-72
2022/12/20 14:04:06;;;;;;;;;11.50;10.00;;;;;;;;5012132;28;10117;-71
2022/12/20 14:06:34;;;;;;;;;10.00;10.00;;;;;;;;5014496;28;10106;-71
2022/12/20 14:09:02;;;;;;;;;9.00;9.00;;;;;;;;5015599;28;9961;-71
2022/12/20 14:11:29;;;;;;;;;12.25;10.00;;;;;;;;5014559;28;9927;-71
2022/12/20 14:13:58;;;;;;;;;7.75;7.75;;;;;;;;5014000;28;10176;-72
2022/12/20 14:16:27;;;;;;;;;9.50;9.00;;;;;;;;5007986;28;10020;-72
2022/12/20 14:19:03;;;;;;;;;9.00;9.00;;;;;;;;5017622;28;10205;-72
2022/12/20 14:21:31;;;;;;;;;7.75;7.75;;;;;;;;5014726;28;10112;-71
2022/12/20 14:24:00;;;;;;;;;13.00;11.00;;;;;;;;4998445;28;10172;-72
2022/12/20 14:26:29;;;;;;;;;11.25;11.25;;;;;;;;5016915;28;10433;-71
2022/12/20 14:28:58;;;;;;;;;14.75;10.25;;;;;;;;5010244;28;10179;-70
2022/12/20 14:31:28;;;;;;;;;11.75;11.75;;;;;;;;5014526;28;10369;-74
2022/12/20 14:34:05;;;;;;;;;10.75;10.75;;;;;;;;5014333;28;10176;-72
2022/12/20 14:36:33;;;;;;;;;11.25;11.25;;;;;;;;5013337;28;10201;-72
2022/12/20 14:39:00;;;;;;;;;9.00;9.00;;;;;;;;5015030;28;10700;-73
2022/12/20 14:41:36;;;;;;;;;8.25;7.00;;;;;;;;5015587;28;10310;-72
2022/12/20 14:46:40;;;;;;;;;15.75;15.75;;;;;;;;4840051;22;10300;-70
2022/12/20 14:49:20;;;;;;;;;13.50;12.25;;;;;;;;4992499;28;10557;-70
2022/12/20 14:51:47;;;;;;;;;9.25;9.25;;;;;;;;4993554;28;11489;-70
2022/12/20 14:56:51;;;;;;;;;14.00;9.50;;;;;;;;4588319;22;10216;-70
2022/12/20 14:59:24;;;;;;;;;8.50;8.50;;;;;;;;5003949;28;10194;-72
2022/12/20 15:01:52;;;;;;;;;11.00;11.00;;;;;;;;4996459;28;10313;-72
2022/12/20 15:04:34;;;;;;;;;14.75;13.00;;;;;;;;5001959;28;11115;-70
2022/12/20 15:07:02;;;;;;;;;11.25;11.00;;;;;;;;5001218;28;10276;-72
2022/12/20 15:09:30;;;;;;;;;10.75;10.75;;;;;;;;4997557;28;10191;-71
2022/12/20 15:11:57;;;;;;;;;9.75;9.75;;;;;;;;5000757;28;10141;-71
2022/12/20 15:14:35;;;;;;;;;20.50;13.00;;;;;;;;5003095;28;10244;-71
2022/12/20 15:17:03;;;;;;;;;10.00;10.00;;;;;;;;4999522;28;10250;-71
2022/12/20 15:19:32;;;;;;;;;10.25;10.25;;;;;;;;5001844;28;10203;-71
2022/12/20 15:22:00;;;;;;;;;14.75;11.75;;;;;;;;4999600;28;10203;-71
2022/12/20 15:24:28;;;;;;;;;11.25;11.00;;;;;;;;4999758;28;10298;-72
2022/12/20 15:26:56;;;;;;;;;14.25;14.25;;;;;;;;4983143;28;10288;-71
2022/12/20 15:29:25;;;;;;;;;14.75;11.00;;;;;;;;5001926;28;10184;-71
2022/12/20 15:31:57;;;;;;;;;11.50;11.50;;;;;;;;5001071;28;10757;-72
2022/12/20 15:34:29;;;;;;;;;8.00;8.00;;;;;;;;5001057;28;10122;-71